MAPA DE AEROPUERTO

INFORMACIÓN METAR y TAF

METAR FOR LECH
ADDS - METARS form results

(0916 UTC 05 December 2020)
Data provider http://aviationweather.gov/metar/data/
 
METAR text: LECH 050900Z AUTO 29007G18KT 220V010 9000 NCD 08/M03 Q0999
Conditions at: LECH (CASTELLON , ES) observed 0900 UTC 05 December 2020
Temperature: 8.0°C (46°F)
Dewpoint: -3.0°C (27°F) [RH = 46%]
Pressure (altimeter): 29.50 inches Hg (999.0 mb)
Winds: from the WNW (290 degrees) at 8 MPH (7 knots; 3.6 m/s)
gusting to 21 MPH (18 knots; 9.3 m/s)
Visibility: 6 miles ( 9 km)
Ceiling: at least 12,000 feet AGL
Clouds: sky clear below 12,000 feet AGL
Weather: no significant weather observed at this time

METAR text: LECH 050830Z AUTO 30009KT 240V350 9000 NCD 07/M03 Q0998
Conditions at: LECH (CASTELLON , ES) observed 0830 UTC 05 December 2020
Temperature: 7.0°C (45°F)
Dewpoint: -3.0°C (27°F) [RH = 49%]
Pressure (altimeter): 29.47 inches Hg (998.0 mb)
Winds: from the WNW (300 degrees) at 10 MPH (9 knots; 4.6 m/s)
Visibility: 6 miles ( 9 km)
Ceiling: at least 12,000 feet AGL
Clouds: sky clear below 12,000 feet AGL
Weather: no significant weather observed at this time